Fort St John Airport
CYXJ : now visible

Airfield :











YOU CAN JOIN US ON...

 
LOGIN :

Register | Disclaimer

   EN    FR    IT 

 









Legend :    VFR   Marginal VFR   IFR   Intensive IFR   Very Intensive IFR
Visi :
Ceiling :
>= 8 km
>= 3000ft
5 to 8 km
1000 to 3000 ft
1500m to 5 km
500 to 1000 ft
800 to 1500m
200 to 500 ft
< 800m
< 200 ft
Symbols :   Thunderstorms  Fog  Heavy snow  Heavy precipitations  Wind > 20 kt






- Airport Elevation : 2280 ft
- IATA code : YXJ


CYXJ - Fort St John

CURRENT METAR :
  • 211814Z 14005KT 1/2SM R30/1400V2600FT/N FG VV002 02/02 A2995 RMK FG8 SLP175

EXPIRED METARs :
  • 211800Z 13006KT 1/4SM R30/1600V2000FT/N FG VV002 01/01 A2995 RMK FG8 SLP176
  • 211711Z 14005KT 1/4SM R30/1100V1200FT/N FG VV002 00/00 A2994 RMK FG8 SLP174
  • 211640Z 15005KT 1/8SM R30/1100V1200FT/N FZFG VV001 M01/M01 A2994 RMK FG8 SLP175
  • 211615Z 15004KT 1/4SM R30/1200FT/N FZFG VV001 M01/M01 A2994 RMK FG8 SLP173

TAF TAF CYXJ
Valid from the 21 at 19:00 until the 22 at 07:00 UTC


211838Z 2119/2207 14005KT 1/2SM FG VV002
TEMPO 2119/2122 6SM BR SCT002
FM212200 11010KT P6SM FEW006 RMK NXT FCST BY 220100Z
CZEG FIR / North America



MET'MAP, your aeronautical weather chart ! - Copyright ORBIFLY December 2007 - Disclaimer

ORBIFLY MET'MAP TEAM :

Programming & Development : Alexandra Zaïnal
Concept & original design : Baudouin d'Aumeries
Assistance for programming : Marc-Olivier Méhu
Technical & hardware support : Manuel Goepfert

Contact : metmap@orbifly.com




SOURCES & CREDITS :

   NOAA       Earth
Advisory